createdAt,value
2017-07-03T00:00:48.356Z,64.50
2017-07-03T00:03:15.926Z,64.70
2017-07-03T00:05:43.376Z,64.60
2017-07-03T00:08:10.950Z,64.70
2017-07-03T00:10:38.418Z,64.80
2017-07-03T00:13:06.651Z,65.30
2017-07-03T00:15:34.130Z,65.10
2017-07-03T00:18:01.685Z,65.40
2017-07-03T00:20:29.167Z,65.40
2017-07-03T00:22:57.391Z,65.50
2017-07-03T00:25:24.883Z,65.50
2017-07-03T00:27:52.434Z,65.50
2017-07-03T00:30:19.999Z,65.50
2017-07-03T00:32:47.465Z,65.80
2017-07-03T00:35:15.739Z,66.30
2017-07-03T00:37:43.998Z,66.10
2017-07-03T00:40:11.467Z,66.10
2017-07-03T00:42:39.739Z,66.50
2017-07-03T00:45:07.352Z,66.30
2017-07-03T00:47:34.850Z,66.50
2017-07-03T00:50:02.410Z,66.90
2017-07-03T00:52:29.965Z,66.90
2017-07-03T00:54:57.524Z,67.20
2017-07-03T00:57:25.099Z,67.10
2017-07-03T00:59:53.334Z,66.30
2017-07-03T01:02:20.807Z,67.00
2017-07-03T01:04:48.260Z,67.10
2017-07-03T01:07:15.891Z,67.40
2017-07-03T01:09:43.379Z,67.40
2017-07-03T01:12:10.843Z,67.30
2017-07-03T01:14:38.397Z,67.30
2017-07-03T01:17:05.971Z,67.40
2017-07-03T01:19:33.521Z,67.50
2017-07-03T01:22:00.981Z,67.50
2017-07-03T01:24:28.469Z,67.60
2017-07-03T01:26:55.996Z,67.60
2017-07-03T01:29:23.563Z,67.80
2017-07-03T01:31:51.789Z,67.60
2017-07-03T01:34:19.299Z,67.50
2017-07-03T01:36:47.530Z,68.50
2017-07-03T01:39:15.025Z,67.50
2017-07-03T01:41:43.305Z,68.00
2017-07-03T01:44:11.536Z,68.10
2017-07-03T01:46:39.026Z,68.10
2017-07-03T01:49:07.266Z,68.50
2017-07-03T01:51:34.758Z,67.90
2017-07-03T01:54:03.092Z,68.20
2017-07-03T01:56:30.589Z,68.20
2017-07-03T01:58:58.328Z,68.30
2017-07-03T02:01:25.787Z,68.40
2017-07-03T02:03:53.270Z,68.40
2017-07-03T02:06:21.541Z,68.10
2017-07-03T02:08:49.102Z,68.60
2017-07-03T02:11:16.661Z,69.50
2017-07-03T02:13:44.906Z,69.90
2017-07-03T02:16:12.387Z,68.90
2017-07-03T02:18:39.840Z,69.10
2017-07-03T02:21:07.396Z,69.20
2017-07-03T02:23:37.619Z,69.40
2017-07-03T02:26:05.097Z,69.50
2017-07-03T02:28:33.357Z,69.60
2017-07-03T02:31:00.827Z,69.60
2017-07-03T02:33:29.088Z,69.90
2017-07-03T02:35:56.667Z,69.80
2017-07-03T02:38:24.892Z,69.90
2017-07-03T02:40:52.379Z,69.80
2017-07-03T02:43:19.945Z,70.10
2017-07-03T02:45:48.213Z,70.40
2017-07-03T02:48:15.680Z,70.20
2017-07-03T02:50:44.254Z,70.30
2017-07-03T02:53:11.808Z,70.20
2017-07-03T02:55:39.363Z,70.40
2017-07-03T02:58:06.849Z,70.30
2017-07-03T03:00:35.090Z,70.30
2017-07-03T03:03:02.698Z,70.20
2017-07-03T03:05:30.235Z,70.30
2017-07-03T03:07:58.497Z,70.40
2017-07-03T03:10:26.058Z,70.20
2017-07-03T03:12:53.528Z,70.40
2017-07-03T03:15:21.782Z,70.50
2017-07-03T03:17:49.359Z,70.50
2017-07-03T03:20:17.625Z,71.10
2017-07-03T03:22:45.891Z,70.70
2017-07-03T03:25:13.378Z,70.70
2017-07-03T03:27:41.616Z,70.60
2017-07-03T03:30:09.185Z,70.60
2017-07-03T03:32:36.746Z,70.70
2017-07-03T03:35:04.301Z,70.80
2017-07-03T03:37:31.789Z,70.80
2017-07-03T03:40:00.047Z,71.80
2017-07-03T03:42:28.282Z,71.00
2017-07-03T03:44:55.766Z,71.00
2017-07-03T03:47:23.241Z,70.80
2017-07-03T03:49:51.602Z,70.90
2017-07-03T03:52:19.163Z,71.70
2017-07-03T03:54:46.722Z,70.80
2017-07-03T03:57:14.992Z,71.20
2017-07-03T03:59:42.553Z,70.60
2017-07-03T04:02:10.038Z,70.80
2017-07-03T04:04:37.587Z,70.70
2017-07-03T04:07:05.840Z,70.50
2017-07-03T04:09:33.312Z,70.40
2017-07-03T04:12:01.577Z,70.80
2017-07-03T04:14:29.827Z,71.30
2017-07-03T04:16:57.303Z,70.40
2017-07-03T04:19:24.766Z,70.50
2017-07-03T04:21:52.243Z,70.50
2017-07-03T04:24:20.508Z,70.40
2017-07-03T04:26:48.786Z,70.70
2017-07-03T04:29:17.009Z,70.70
2017-07-03T04:31:44.498Z,70.60
2017-07-03T04:34:11.960Z,70.50
2017-07-03T04:36:39.516Z,70.40
2017-07-03T04:39:07.080Z,70.40
2017-07-03T04:41:34.564Z,70.10
2017-07-03T04:44:02.783Z,69.90
2017-07-03T04:46:30.238Z,69.80
2017-07-03T04:48:57.707Z,69.50
2017-07-03T04:51:25.172Z,69.00
2017-07-03T04:53:52.752Z,69.40
2017-07-03T04:56:21.022Z,69.40
2017-07-03T04:58:48.586Z,68.90
2017-07-03T05:01:16.808Z,69.10
2017-07-03T05:03:44.304Z,68.90
2017-07-03T05:06:11.872Z,69.00
2017-07-03T05:08:39.423Z,69.00
2017-07-03T05:11:06.890Z,69.10
2017-07-03T05:13:35.125Z,68.70
2017-07-03T05:16:02.613Z,68.60
2017-07-03T05:18:30.095Z,68.00
2017-07-03T05:20:58.335Z,68.40
2017-07-03T05:23:25.802Z,68.20
2017-07-03T05:25:53.261Z,68.60
2017-07-03T05:28:20.722Z,68.60
2017-07-03T05:30:48.181Z,69.00
2017-07-03T05:33:16.425Z,69.40
2017-07-03T05:35:43.901Z,68.40
2017-07-03T05:38:11.374Z,68.10
2017-07-03T05:40:39.643Z,68.20
2017-07-03T05:43:12.757Z,67.80
2017-07-03T05:45:40.299Z,68.30
2017-07-03T05:48:08.662Z,67.50
2017-07-03T05:50:36.131Z,67.50
2017-07-03T05:53:04.398Z,67.40
2017-07-03T05:55:32.629Z,67.70
2017-07-03T05:58:00.142Z,67.60
2017-07-03T06:00:27.638Z,67.30
2017-07-03T06:02:55.124Z,67.20
2017-07-03T06:05:22.589Z,66.70
2017-07-03T06:07:50.144Z,66.80
2017-07-03T06:10:17.634Z,66.70
2017-07-03T06:12:45.097Z,66.30
2017-07-03T06:15:12.638Z,65.80
2017-07-03T06:17:40.860Z,67.30
2017-07-03T06:20:08.344Z,66.20
2017-07-03T06:22:35.918Z,65.90
2017-07-03T06:25:03.428Z,65.20
2017-07-03T06:27:30.929Z,64.90
2017-07-03T06:29:58.497Z,64.80
2017-07-03T06:32:26.060Z,64.50
2017-07-03T06:34:54.418Z,64.90
2017-07-03T06:37:21.899Z,64.30
2017-07-03T06:39:50.151Z,64.40
2017-07-03T06:42:17.630Z,64.30
2017-07-03T06:44:46.000Z,64.40
2017-07-03T06:47:13.582Z,64.20
2017-07-03T06:49:41.123Z,63.90
2017-07-03T06:52:09.364Z,65.30
2017-07-03T06:54:36.959Z,64.20
2017-07-03T06:57:05.212Z,63.30
2017-07-03T06:59:32.787Z,63.20
2017-07-03T07:02:01.043Z,61.70
2017-07-03T07:04:28.619Z,61.60
2017-07-03T07:06:56.853Z,60.40
2017-07-03T07:09:24.347Z,60.20
2017-07-03T07:11:51.902Z,60.30
2017-07-03T07:14:19.373Z,60.80
2017-07-03T07:16:47.724Z,59.70
2017-07-03T07:19:15.304Z,59.60
2017-07-03T07:21:43.551Z,60.10
2017-07-03T07:24:11.053Z,59.40
2017-07-03T07:26:39.417Z,60.90
2017-07-03T07:29:07.654Z,59.80
2017-07-03T07:31:35.150Z,59.80
2017-07-03T07:34:03.389Z,59.10
2017-07-03T07:36:30.961Z,59.00
2017-07-03T07:38:58.434Z,58.60
2017-07-03T07:41:26.678Z,57.40
2017-07-03T07:43:54.139Z,57.60
2017-07-03T07:46:21.610Z,57.90
2017-07-03T07:48:49.078Z,56.50
2017-07-03T07:51:17.350Z,56.80
2017-07-03T07:53:44.916Z,56.10
2017-07-03T07:56:13.146Z,57.00
2017-07-03T07:58:40.641Z,56.40
2017-07-03T08:01:08.204Z,55.20
2017-07-03T08:03:35.759Z,55.00
2017-07-03T08:06:04.035Z,54.70
2017-07-03T08:08:31.578Z,54.70
2017-07-03T08:10:59.028Z,54.90
2017-07-03T08:13:26.492Z,55.00
2017-07-03T08:15:54.073Z,56.10
2017-07-03T08:18:22.328Z,56.20
2017-07-03T08:20:49.783Z,56.10
2017-07-03T08:23:17.360Z,55.30
2017-07-03T08:25:45.610Z,55.40
2017-07-03T08:28:13.196Z,55.50
2017-07-03T08:30:41.424Z,55.00
2017-07-03T08:33:08.914Z,54.50
2017-07-03T08:35:36.373Z,54.20
2017-07-03T08:38:03.938Z,53.40
2017-07-03T08:40:31.498Z,53.90
2017-07-03T08:42:58.968Z,54.10
2017-07-03T08:45:27.334Z,54.40
2017-07-03T08:47:54.886Z,54.40
2017-07-03T08:50:22.363Z,54.30
2017-07-03T08:52:50.621Z,53.40
2017-07-03T08:55:18.086Z,53.30
2017-07-03T08:57:46.363Z,52.60
2017-07-03T09:00:14.593Z,52.90
2017-07-03T09:02:42.089Z,52.70
2017-07-03T09:05:09.641Z,53.50
2017-07-03T09:07:37.106Z,52.50
2017-07-03T09:10:04.670Z,53.00
2017-07-03T09:12:32.949Z,53.60
2017-07-03T09:15:01.172Z,53.20
2017-07-03T09:17:28.629Z,53.00
2017-07-03T09:19:56.089Z,52.30
2017-07-03T09:22:23.567Z,53.10
2017-07-03T09:24:51.031Z,50.60
2017-07-03T09:27:18.591Z,51.90
2017-07-03T09:29:46.163Z,51.20
2017-07-03T09:32:14.404Z,51.70
2017-07-03T09:34:41.871Z,51.60
2017-07-03T09:37:09.451Z,50.60
2017-07-03T09:39:36.994Z,51.50
2017-07-03T09:42:04.578Z,49.60
2017-07-03T09:44:32.809Z,48.70
2017-07-03T09:47:00.295Z,48.70
2017-07-03T09:49:27.766Z,49.60
2017-07-03T09:51:55.993Z,47.70
2017-07-03T09:54:23.477Z,47.70
2017-07-03T09:56:51.086Z,47.90
2017-07-03T09:59:18.575Z,48.10
2017-07-03T10:01:46.041Z,48.20
2017-07-03T10:04:13.617Z,48.10
2017-07-03T10:06:41.156Z,47.90
2017-07-03T10:09:08.716Z,47.90
2017-07-03T10:11:36.169Z,47.30
2017-07-03T10:14:03.732Z,46.70
2017-07-03T10:16:31.254Z,46.10
2017-07-03T10:18:58.722Z,46.40
2017-07-03T10:21:26.311Z,47.00
2017-07-03T10:23:53.769Z,47.50
2017-07-03T10:26:21.325Z,47.10
2017-07-03T10:28:48.811Z,46.90
2017-07-03T10:31:17.057Z,46.40
2017-07-03T10:33:44.522Z,46.40
2017-07-03T10:36:12.076Z,47.40
2017-07-03T10:38:39.653Z,48.40
2017-07-03T10:41:07.915Z,47.70
2017-07-03T10:43:35.467Z,47.70
2017-07-03T10:46:02.940Z,46.40
2017-07-03T10:48:31.170Z,43.70
2017-07-03T10:50:58.671Z,43.70
2017-07-03T10:53:26.894Z,46.20
2017-07-03T10:55:54.366Z,46.20
2017-07-03T10:58:21.897Z,46.30
2017-07-03T11:00:50.117Z,47.20
2017-07-03T11:03:17.691Z,47.10
2017-07-03T11:05:45.958Z,43.60
2017-07-03T11:08:13.523Z,43.40
2017-07-03T11:10:41.068Z,43.70
2017-07-03T11:13:08.546Z,44.20
2017-07-03T11:15:36.770Z,44.00
2017-07-03T11:18:04.270Z,43.30
2017-07-03T11:20:31.830Z,43.70
2017-07-03T11:22:59.297Z,43.00
2017-07-03T11:25:27.521Z,42.60
2017-07-03T11:27:54.995Z,42.60
2017-07-03T11:30:22.456Z,42.90
2017-07-03T11:32:49.927Z,42.40
2017-07-03T11:35:17.406Z,42.30
2017-07-03T11:37:45.640Z,43.60
2017-07-03T11:40:13.112Z,43.50
2017-07-03T11:42:40.684Z,44.80
2017-07-03T11:45:08.957Z,43.80
2017-07-03T11:47:37.222Z,42.60
2017-07-03T11:50:04.689Z,42.60
2017-07-03T11:52:32.919Z,42.10
2017-07-03T11:55:00.464Z,42.00
2017-07-03T11:57:27.974Z,42.90
2017-07-03T11:59:55.536Z,43.40
2017-07-03T12:02:22.989Z,42.30
2017-07-03T12:04:50.462Z,41.40
2017-07-03T12:07:18.700Z,41.50
2017-07-03T12:09:46.373Z,41.40
2017-07-03T12:12:13.933Z,41.40
2017-07-03T12:14:41.502Z,40.60
2017-07-03T12:17:09.053Z,42.20
2017-07-03T12:19:36.605Z,42.00
2017-07-03T12:22:04.161Z,42.60
2017-07-03T12:24:31.629Z,42.70
2017-07-03T12:26:59.182Z,42.80
2017-07-03T12:29:26.746Z,41.30
2017-07-03T12:31:54.313Z,39.40
2017-07-03T12:34:22.541Z,42.80
2017-07-03T12:36:50.062Z,42.10
2017-07-03T12:39:18.296Z,42.20
2017-07-03T12:41:45.870Z,42.20
2017-07-03T12:44:13.420Z,41.70
2017-07-03T12:46:40.894Z,40.60
2017-07-03T12:49:09.171Z,40.50
2017-07-03T12:51:37.446Z,39.20
2017-07-03T12:54:04.993Z,38.50
2017-07-03T12:56:32.545Z,38.90
2017-07-03T12:59:00.015Z,39.70
2017-07-03T13:01:27.571Z,40.70
2017-07-03T13:03:55.117Z,40.70
2017-07-03T13:06:22.581Z,41.20
2017-07-03T13:08:50.128Z,39.60
2017-07-03T13:11:17.591Z,37.90
2017-07-03T13:13:45.064Z,38.60
2017-07-03T13:16:12.612Z,38.30
2017-07-03T13:18:40.087Z,37.50
2017-07-03T13:21:08.364Z,39.80
2017-07-03T13:23:36.618Z,39.50
2017-07-03T13:26:04.072Z,38.80
2017-07-03T13:28:31.535Z,39.00
2017-07-03T13:30:59.090Z,38.90
2017-07-03T13:33:26.545Z,38.30
2017-07-03T13:35:54.030Z,39.00
2017-07-03T13:38:22.385Z,40.80
2017-07-03T13:40:49.951Z,40.70
2017-07-03T13:43:17.411Z,40.00
2017-07-03T13:45:45.683Z,38.80
2017-07-03T13:48:13.228Z,39.30
2017-07-03T13:50:40.775Z,38.80
2017-07-03T13:53:08.236Z,38.80
2017-07-03T13:55:35.802Z,40.10
2017-07-03T13:58:03.271Z,38.60
2017-07-03T14:00:30.826Z,39.00
2017-07-03T14:02:58.276Z,39.30
2017-07-03T14:05:25.838Z,40.50
2017-07-03T14:07:53.400Z,39.40
2017-07-03T14:10:20.970Z,38.20
2017-07-03T14:12:49.207Z,36.70
2017-07-03T14:15:16.687Z,36.60
2017-07-03T14:17:44.246Z,37.10
2017-07-03T14:20:11.704Z,36.70
2017-07-03T14:22:39.937Z,38.10
2017-07-03T14:25:07.439Z,37.30
2017-07-03T14:27:34.980Z,37.60
2017-07-03T14:30:02.558Z,38.50
2017-07-03T14:32:30.118Z,37.20
2017-07-03T14:34:57.679Z,38.00
2017-07-03T14:37:25.905Z,37.70
2017-07-03T14:39:53.386Z,37.60
2017-07-03T14:42:20.850Z,38.00
2017-07-03T14:44:48.306Z,38.00
2017-07-03T14:47:15.887Z,38.80
2017-07-03T14:49:44.150Z,36.40
2017-07-03T14:52:12.415Z,36.80
2017-07-03T14:54:39.881Z,36.70
2017-07-03T14:57:07.337Z,37.60
2017-07-03T14:59:34.885Z,36.10
2017-07-03T15:02:02.333Z,37.80
2017-07-03T15:04:29.799Z,37.30
2017-07-03T15:06:57.358Z,36.90
2017-07-03T15:09:24.909Z,36.60
2017-07-03T15:11:52.365Z,36.20
2017-07-03T15:14:19.829Z,36.20
2017-07-03T15:16:47.390Z,35.40
2017-07-03T15:19:14.950Z,37.00
2017-07-03T15:21:42.506Z,37.00
2017-07-03T15:24:10.066Z,37.30
2017-07-03T15:26:37.635Z,36.60
2017-07-03T15:29:05.085Z,36.90
2017-07-03T15:31:32.549Z,34.80
2017-07-03T15:34:00.808Z,36.00
2017-07-03T15:36:28.270Z,35.90
2017-07-03T15:38:55.717Z,36.40
2017-07-03T15:41:23.185Z,36.30
2017-07-03T15:43:50.750Z,36.40
2017-07-03T15:46:18.207Z,37.00
2017-07-03T15:48:45.665Z,36.40
2017-07-03T15:51:13.892Z,37.30
2017-07-03T15:53:41.390Z,36.80
2017-07-03T15:56:08.849Z,36.70
2017-07-03T15:58:36.320Z,36.80
2017-07-03T16:01:04.575Z,37.80
2017-07-03T16:03:32.131Z,37.80
2017-07-03T16:05:59.593Z,36.80
2017-07-03T16:08:27.137Z,37.40
2017-07-03T16:10:54.594Z,37.50
2017-07-03T16:13:22.157Z,37.50
2017-07-03T16:15:49.634Z,37.10
2017-07-03T16:18:17.888Z,36.80
2017-07-03T16:20:45.347Z,36.80
2017-07-03T16:23:12.801Z,36.60
2017-07-03T16:25:40.283Z,37.80
2017-07-03T16:28:08.545Z,37.20
2017-07-03T16:30:36.107Z,37.20
2017-07-03T16:33:03.667Z,38.30
2017-07-03T16:35:31.131Z,37.50
2017-07-03T16:37:59.358Z,38.10
2017-07-03T16:40:26.831Z,38.10
2017-07-03T16:42:54.302Z,37.50
2017-07-03T16:45:21.772Z,38.30
2017-07-03T16:47:50.167Z,37.90
2017-07-03T16:50:18.394Z,38.80
2017-07-03T16:52:45.874Z,38.80
2017-07-03T16:55:13.353Z,39.10
2017-07-03T16:57:41.586Z,39.30
2017-07-03T17:00:09.155Z,39.30
2017-07-03T17:02:36.610Z,39.50
2017-07-03T17:05:04.065Z,39.30
2017-07-03T17:07:31.641Z,39.00
2017-07-03T17:09:59.195Z,39.40
2017-07-03T17:12:26.754Z,39.80
2017-07-03T17:14:54.360Z,39.70
2017-07-03T17:17:21.875Z,40.20
2017-07-03T17:19:49.329Z,40.30
2017-07-03T17:22:17.552Z,39.40
2017-07-03T17:24:45.013Z,39.80
2017-07-03T17:27:12.517Z,39.90
2017-07-03T17:29:39.982Z,40.40
2017-07-03T17:32:08.261Z,40.90
2017-07-03T17:34:36.524Z,41.00
2017-07-03T17:37:04.084Z,40.90
2017-07-03T17:39:31.551Z,40.80
2017-07-03T17:41:59.820Z,41.50
2017-07-03T17:44:27.288Z,41.40
2017-07-03T17:46:55.558Z,41.60
2017-07-03T17:49:23.826Z,41.30
2017-07-03T17:51:52.102Z,41.00
2017-07-03T17:54:20.345Z,42.10
2017-07-03T17:56:47.810Z,41.20
2017-07-03T17:59:15.269Z,41.50
2017-07-03T18:01:42.720Z,41.50
2017-07-03T18:04:10.192Z,41.70
2017-07-03T18:06:37.754Z,42.20
2017-07-03T18:09:05.337Z,42.00
2017-07-03T18:11:33.570Z,42.40
2017-07-03T18:14:01.022Z,42.30
2017-07-03T18:16:28.511Z,42.60
2017-07-03T18:18:56.773Z,43.10
2017-07-03T18:21:24.246Z,42.50
2017-07-03T18:23:52.469Z,43.50
2017-07-03T18:26:19.935Z,42.90
2017-07-03T18:28:47.425Z,43.10
2017-07-03T18:31:14.974Z,43.90
2017-07-03T18:33:42.524Z,43.30
2017-07-03T18:36:10.002Z,43.40
2017-07-03T18:38:37.461Z,43.80
2017-07-03T18:41:05.696Z,43.70
2017-07-03T18:43:33.167Z,43.70
2017-07-03T18:46:00.732Z,44.00
2017-07-03T18:48:28.294Z,44.10
2017-07-03T18:50:55.869Z,44.50
2017-07-03T18:53:23.419Z,45.40
2017-07-03T18:55:50.886Z,45.50
2017-07-03T18:58:19.178Z,44.80
2017-07-03T19:00:46.696Z,44.70
2017-07-03T19:03:14.258Z,45.00
2017-07-03T19:05:41.839Z,44.70
2017-07-03T19:08:10.101Z,44.90
2017-07-03T19:10:37.654Z,44.80
2017-07-03T19:13:05.129Z,46.40
2017-07-03T19:15:33.349Z,46.00
2017-07-03T19:18:00.851Z,45.90
2017-07-03T19:20:28.319Z,46.00
2017-07-03T19:22:56.567Z,46.20
2017-07-03T19:25:24.034Z,46.20
2017-07-03T19:27:51.602Z,46.40
2017-07-03T19:30:19.895Z,47.30
2017-07-03T19:32:48.134Z,46.80
2017-07-03T19:35:15.606Z,46.80
2017-07-03T19:37:43.159Z,46.90
2017-07-03T19:40:10.613Z,46.80
2017-07-03T19:42:38.087Z,46.80
2017-07-03T19:45:06.340Z,47.10
2017-07-03T19:47:33.909Z,47.00
2017-07-03T19:50:01.459Z,47.60
2017-07-03T19:52:29.028Z,47.70
2017-07-03T19:54:56.495Z,47.70
2017-07-03T19:57:23.963Z,47.50
2017-07-03T19:59:51.440Z,47.30
2017-07-03T20:02:18.898Z,47.40
2017-07-03T20:04:46.357Z,47.80
2017-07-03T20:07:13.826Z,48.20
2017-07-03T20:09:41.314Z,47.70
2017-07-03T20:12:08.772Z,47.60
2017-07-03T20:14:36.339Z,47.00
2017-07-03T20:17:03.899Z,47.40
2017-07-03T20:19:31.443Z,47.80
2017-07-03T20:21:58.958Z,47.70
2017-07-03T20:24:26.467Z,48.50
2017-07-03T20:26:53.929Z,48.20
2017-07-03T20:29:21.483Z,48.10
2017-07-03T20:31:49.050Z,48.80
2017-07-03T20:34:17.277Z,47.90
2017-07-03T20:36:44.750Z,47.80
2017-07-03T20:39:12.206Z,48.10
2017-07-03T20:41:39.681Z,48.00
2017-07-03T20:44:07.261Z,48.40
2017-07-03T20:46:35.523Z,48.10
2017-07-03T20:49:03.073Z,48.10
2017-07-03T20:51:30.554Z,48.30
2017-07-03T20:53:58.778Z,48.30
2017-07-03T20:56:26.329Z,48.20
2017-07-03T20:58:53.826Z,48.20
2017-07-03T21:01:21.381Z,48.20
2017-07-03T21:03:48.979Z,48.20
2017-07-03T21:06:16.398Z,48.50
2017-07-03T21:08:43.952Z,48.70
2017-07-03T21:11:11.429Z,48.50
2017-07-03T21:13:39.713Z,48.80
2017-07-03T21:16:08.004Z,48.90
2017-07-03T21:18:35.520Z,48.90
2017-07-03T21:21:03.078Z,48.90
2017-07-03T21:23:30.638Z,49.00
2017-07-03T21:25:58.093Z,49.10
2017-07-03T21:28:25.655Z,49.20
2017-07-03T21:30:53.125Z,49.80
2017-07-03T21:33:21.359Z,49.90
2017-07-03T21:35:48.821Z,49.50
2017-07-03T21:38:16.316Z,49.40
2017-07-03T21:40:44.588Z,49.30
2017-07-03T21:43:12.905Z,49.60
2017-07-03T21:45:40.361Z,49.30
2017-07-03T21:48:07.824Z,49.30
2017-07-03T21:50:35.331Z,49.20
2017-07-03T21:53:02.892Z,49.00
2017-07-03T21:55:31.122Z,49.80
2017-07-03T21:57:58.595Z,49.30
2017-07-03T22:00:26.227Z,49.40
2017-07-03T22:02:53.690Z,49.10
2017-07-03T22:05:21.189Z,49.00
2017-07-03T22:07:48.746Z,48.70
2017-07-03T22:10:16.219Z,48.90
2017-07-03T22:12:44.477Z,48.40
2017-07-03T22:15:11.942Z,48.40
2017-07-03T22:17:40.093Z,48.50
2017-07-03T22:20:07.559Z,48.10
2017-07-03T22:22:35.022Z,47.80
2017-07-03T22:25:02.476Z,47.60
2017-07-03T22:27:29.955Z,47.40
2017-07-03T22:29:58.176Z,47.50
2017-07-03T22:32:25.660Z,47.50
2017-07-03T22:34:53.123Z,47.10
2017-07-03T22:37:20.841Z,47.30
2017-07-03T22:39:48.295Z,47.40
2017-07-03T22:42:15.798Z,46.90
2017-07-03T22:44:43.352Z,47.00
2017-07-03T22:47:10.919Z,47.10
2017-07-03T22:49:38.375Z,47.10
2017-07-03T22:52:05.882Z,47.30
2017-07-03T22:54:33.345Z,47.50
2017-07-03T22:57:00.814Z,48.20
2017-07-03T22:59:28.303Z,47.80
2017-07-03T23:01:56.566Z,48.10
2017-07-03T23:04:24.026Z,48.10
2017-07-03T23:06:51.576Z,48.30
2017-07-03T23:09:19.050Z,48.40
2017-07-03T23:11:46.580Z,48.60
2017-07-03T23:14:14.046Z,48.80
2017-07-03T23:16:41.526Z,49.00
2017-07-03T23:19:09.073Z,49.20
2017-07-03T23:21:36.540Z,49.50
2017-07-03T23:24:04.765Z,49.90
2017-07-03T23:26:32.253Z,49.60
2017-07-03T23:28:59.729Z,50.20
2017-07-03T23:31:27.283Z,49.70
2017-07-03T23:33:54.833Z,49.80
2017-07-03T23:36:22.401Z,49.90
2017-07-03T23:38:49.852Z,50.00
2017-07-03T23:41:17.317Z,50.20
2017-07-03T23:43:45.550Z,51.10
2017-07-03T23:46:13.033Z,51.10
2017-07-03T23:48:40.603Z,52.30
2017-07-03T23:51:08.157Z,53.00
2017-07-03T23:53:35.617Z,54.40
2017-07-03T23:56:03.090Z,55.30
2017-07-03T23:58:31.306Z,57.40
